Crestview, FL

7:54 AM CDT on May 27, 2015 (GMT -0500)
Ridgecrest Estates | | Change Station
CLOSE
Current Station
Personal Weather Station
Location: Crestview, FL
Elevation: 210 ft
Nearby Weather Stations

Elev 210 ft 30.76 °N, 86.58 °W | Updated 21 seconds ago

Partly Cloudy
Partly Cloudy
74.8 °F
Feels Like 74 °F
N
1.7
Wind Variable Wind from NE

Today
High -- | Low -- °F
--% Chance of Precip.
Yesterday
High -- | Low -- °F
Precip. -- in
5:45 AM 7:41 PM
Waxing Gibbous, 67% visible
Pressure 30.18 in
Visibility 10.0 miles
Clouds Clear
Heat Index 74 °F
Dew Point 72 °F
Humidity 90%
Rainfall 0.00 in
Snow Depth Not available.
UV 1 out of 12
Pollen 1.60 out of 12
Air Quality Not available.
Flu Activity Sporadic
METAR KCEW 271153Z AUTO 07003KT 10SM CLR 21/20 A3018 RMK AO2 SLP218 70065 T02110200 10211 20189 51011

More Conditions Fewer Conditions

Pressure 30.18 in
Visibility 10.0 miles
Clouds Clear
Heat Index 74 °F
Dew Point 72 °F
Humidity 90%
Rainfall 0.00 in
Snow Depth Not available.
UV 1 out of 12
Pollen 1.60 out of 12
Air Quality Not available.
Flu Activity Sporadic
METAR KCEW 271153Z AUTO 07003KT 10SM CLR 21/20 A3018 RMK AO2 SLP218 70065 T02110200 10211 20189 51011

More Conditions Fewer Conditions

10-Day Weather Forecast

Almanac

Astronomy

May. 27, 2015 Rise Set
Actual Time
Civil Twilight
Nautical Twilight
Astronomical Twilight
Moon
Length of Visible Light
Length of Day
Tomorrow will be .
, % of the Moon is Illuminated

Today's Extremes

State Highs State Lows

Community

WunderPhotos

Upload Photos

1,824,661 photos uploaded!

WunderBlogs® & News

Nearby

Air Quality

  Air Quality AQ Index Pollutant
Not available.

Snow Depth

Station Depth Elevation

Earthquake Activity

City Distance Mag. Time & Date
Minimum magnitude displayed is 2.5.

Coastal Water Temperatures

Place Temperature

Stations

Nearby Weather Stations

Station Location Temp. Windchill Dew Point Humidity Wind Precip. Elev Updated Type